sensor_id;sensor_type;location;lat;lon;timestamp;P1;durP1;ratioP1;P2;durP2;ratioP2
11777;SDS011;5946;51.770;8.548;2024-01-06T00:01:10;21.17;;;16.50;;
11777;SDS011;5946;51.770;8.548;2024-01-06T00:03:37;23.30;;;16.50;;
11777;SDS011;5946;51.770;8.548;2024-01-06T00:06:03;22.07;;;16.40;;
11777;SDS011;5946;51.770;8.548;2024-01-06T00:08:29;22.97;;;17.53;;
11777;SDS011;5946;51.770;8.548;2024-01-06T00:10:55;24.13;;;17.63;;
11777;SDS011;5946;51.770;8.548;2024-01-06T00:13:20;24.47;;;18.13;;
11777;SDS011;5946;51.770;8.548;2024-01-06T00:15:46;24.67;;;18.13;;
11777;SDS011;5946;51.770;8.548;2024-01-06T00:18:12;24.87;;;17.43;;
11777;SDS011;5946;51.770;8.548;2024-01-06T00:20:38;23.80;;;16.83;;
11777;SDS011;5946;51.770;8.548;2024-01-06T00:23:04;24.87;;;17.33;;
11777;SDS011;5946;51.770;8.548;2024-01-06T00:25:30;25.73;;;17.73;;
11777;SDS011;5946;51.770;8.548;2024-01-06T00:27:56;26.03;;;17.60;;
11777;SDS011;5946;51.770;8.548;2024-01-06T00:30:22;25.23;;;17.30;;
11777;SDS011;5946;51.770;8.548;2024-01-06T00:32:48;24.47;;;16.27;;
11777;SDS011;5946;51.770;8.548;2024-01-06T00:35:15;26.87;;;17.30;;
11777;SDS011;5946;51.770;8.548;2024-01-06T00:37:40;22.03;;;15.87;;
11777;SDS011;5946;51.770;8.548;2024-01-06T00:40:07;25.20;;;15.23;;
11777;SDS011;5946;51.770;8.548;2024-01-06T00:42:33;26.07;;;17.17;;
11777;SDS011;5946;51.770;8.548;2024-01-06T00:44:58;27.00;;;16.87;;
11777;SDS011;5946;51.770;8.548;2024-01-06T00:47:24;23.63;;;16.10;;
11777;SDS011;5946;51.770;8.548;2024-01-06T00:49:50;25.10;;;16.67;;
11777;SDS011;5946;51.770;8.548;2024-01-06T00:52:16;24.60;;;16.23;;
11777;SDS011;5946;51.770;8.548;2024-01-06T00:54:42;29.97;;;16.73;;
11777;SDS011;5946;51.770;8.548;2024-01-06T00:57:08;27.97;;;17.07;;
11777;SDS011;5946;51.770;8.548;2024-01-06T00:59:34;25.20;;;16.17;;
11777;SDS011;5946;51.770;8.548;2024-01-06T01:02:00;25.00;;;16.10;;
11777;SDS011;5946;51.770;8.548;2024-01-06T01:04:26;26.13;;;16.90;;
11777;SDS011;5946;51.770;8.548;2024-01-06T01:06:52;27.80;;;17.43;;
11777;SDS011;5946;51.770;8.548;2024-01-06T01:09:18;25.67;;;16.20;;
11777;SDS011;5946;51.770;8.548;2024-01-06T01:11:44;28.77;;;18.23;;
11777;SDS011;5946;51.770;8.548;2024-01-06T01:14:10;28.73;;;17.47;;
11777;SDS011;5946;51.770;8.548;2024-01-06T01:16:36;30.57;;;18.07;;
11777;SDS011;5946;51.770;8.548;2024-01-06T01:19:02;27.50;;;17.53;;
11777;SDS011;5946;51.770;8.548;2024-01-06T01:21:28;30.30;;;17.83;;
11777;SDS011;5946;51.770;8.548;2024-01-06T01:23:54;31.30;;;18.50;;
11777;SDS011;5946;51.770;8.548;2024-01-06T01:26:19;29.80;;;18.27;;
11777;SDS011;5946;51.770;8.548;2024-01-06T01:28:45;31.00;;;17.73;;
11777;SDS011;5946;51.770;8.548;2024-01-06T01:31:12;34.10;;;19.43;;
11777;SDS011;5946;51.770;8.548;2024-01-06T01:33:38;31.17;;;17.37;;
11777;SDS011;5946;51.770;8.548;2024-01-06T01:36:04;37.77;;;19.67;;
11777;SDS011;5946;51.770;8.548;2024-01-06T01:38:30;33.80;;;19.53;;
11777;SDS011;5946;51.770;8.548;2024-01-06T01:40:56;36.67;;;20.17;;
11777;SDS011;5946;51.770;8.548;2024-01-06T01:43:24;31.90;;;18.60;;
11777;SDS011;5946;51.770;8.548;2024-01-06T01:45:50;33.17;;;19.37;;
11777;SDS011;5946;51.770;8.548;2024-01-06T01:48:16;42.27;;;22.50;;
11777;SDS011;5946;51.770;8.548;2024-01-06T01:50:43;33.77;;;19.40;;
11777;SDS011;5946;51.770;8.548;2024-01-06T01:53:09;38.33;;;21.13;;
11777;SDS011;5946;51.770;8.548;2024-01-06T01:55:36;35.43;;;21.60;;
11777;SDS011;5946;51.770;8.548;2024-01-06T01:58:02;37.33;;;21.37;;
11777;SDS011;5946;51.770;8.548;2024-01-06T02:00:28;39.83;;;23.33;;
11777;SDS011;5946;51.770;8.548;2024-01-06T02:02:54;38.97;;;22.97;;
11777;SDS011;5946;51.770;8.548;2024-01-06T02:05:20;51.63;;;28.10;;
11777;SDS011;5946;51.770;8.548;2024-01-06T02:07:46;57.00;;;30.07;;
11777;SDS011;5946;51.770;8.548;2024-01-06T02:10:12;51.53;;;26.70;;
11777;SDS011;5946;51.770;8.548;2024-01-06T02:12:38;51.73;;;26.27;;
11777;SDS011;5946;51.770;8.548;2024-01-06T02:15:04;43.40;;;22.93;;
11777;SDS011;5946;51.770;8.548;2024-01-06T02:17:30;51.97;;;25.90;;
11777;SDS011;5946;51.770;8.548;2024-01-06T02:19:56;54.63;;;25.97;;
11777;SDS011;5946;51.770;8.548;2024-01-06T02:22:22;40.07;;;23.27;;
11777;SDS011;5946;51.770;8.548;2024-01-06T02:24:48;48.83;;;26.43;;
11777;SDS011;5946;51.770;8.548;2024-01-06T02:27:14;48.77;;;25.40;;
11777;SDS011;5946;51.770;8.548;2024-01-06T02:29:40;53.20;;;27.20;;
11777;SDS011;5946;51.770;8.548;2024-01-06T02:32:06;55.87;;;27.47;;
11777;SDS011;5946;51.770;8.548;2024-01-06T02:34:32;53.40;;;26.13;;
11777;SDS011;5946;51.770;8.548;2024-01-06T02:36:59;60.63;;;28.53;;
11777;SDS011;5946;51.770;8.548;2024-01-06T02:39:25;49.93;;;26.47;;
11777;SDS011;5946;51.770;8.548;2024-01-06T02:41:51;63.67;;;29.90;;
11777;SDS011;5946;51.770;8.548;2024-01-06T02:44:17;51.23;;;27.63;;
11777;SDS011;5946;51.770;8.548;2024-01-06T02:46:43;56.73;;;27.90;;
11777;SDS011;5946;51.770;8.548;2024-01-06T02:49:09;52.10;;;27.47;;
11777;SDS011;5946;51.770;8.548;2024-01-06T02:51:35;56.00;;;28.53;;
11777;SDS011;5946;51.770;8.548;2024-01-06T02:54:01;48.93;;;26.53;;
11777;SDS011;5946;51.770;8.548;2024-01-06T02:56:27;54.27;;;28.23;;
11777;SDS011;5946;51.770;8.548;2024-01-06T02:58:53;48.03;;;26.10;;
11777;SDS011;5946;51.770;8.548;2024-01-06T03:01:19;45.53;;;24.30;;
11777;SDS011;5946;51.770;8.548;2024-01-06T03:03:44;45.63;;;25.13;;
11777;SDS011;5946;51.770;8.548;2024-01-06T03:06:10;45.37;;;25.30;;
11777;SDS011;5946;51.770;8.548;2024-01-06T03:08:36;46.60;;;24.70;;
11777;SDS011;5946;51.770;8.548;2024-01-06T03:11:02;44.50;;;23.90;;
11777;SDS011;5946;51.770;8.548;2024-01-06T03:13:30;45.67;;;23.87;;
11777;SDS011;5946;51.770;8.548;2024-01-06T03:15:56;37.83;;;21.73;;
11777;SDS011;5946;51.770;8.548;2024-01-06T03:18:22;46.00;;;23.07;;
11777;SDS011;5946;51.770;8.548;2024-01-06T03:20:48;42.23;;;23.17;;
11777;SDS011;5946;51.770;8.548;2024-01-06T03:23:14;45.20;;;22.63;;
11777;SDS011;5946;51.770;8.548;2024-01-06T03:25:39;43.90;;;23.03;;
11777;SDS011;5946;51.770;8.548;2024-01-06T03:28:05;44.33;;;23.43;;
11777;SDS011;5946;51.770;8.548;2024-01-06T03:30:31;44.10;;;23.00;;
11777;SDS011;5946;51.770;8.548;2024-01-06T03:32:57;43.93;;;23.20;;
11777;SDS011;5946;51.770;8.548;2024-01-06T03:35:23;43.23;;;22.43;;
11777;SDS011;5946;51.770;8.548;2024-01-06T03:37:49;48.00;;;23.50;;
11777;SDS011;5946;51.770;8.548;2024-01-06T03:40:15;49.67;;;23.63;;
11777;SDS011;5946;51.770;8.548;2024-01-06T03:42:41;45.07;;;23.00;;
11777;SDS011;5946;51.770;8.548;2024-01-06T03:45:08;42.50;;;22.10;;
11777;SDS011;5946;51.770;8.548;2024-01-06T03:47:34;42.63;;;22.17;;
11777;SDS011;5946;51.770;8.548;2024-01-06T03:50:00;45.00;;;23.50;;
11777;SDS011;5946;51.770;8.548;2024-01-06T03:52:26;45.43;;;22.90;;
11777;SDS011;5946;51.770;8.548;2024-01-06T03:54:52;47.20;;;22.77;;
11777;SDS011;5946;51.770;8.548;2024-01-06T03:57:17;47.00;;;24.27;;
11777;SDS011;5946;51.770;8.548;2024-01-06T03:59:43;49.53;;;24.30;;
11777;SDS011;5946;51.770;8.548;2024-01-06T04:02:09;48.20;;;24.00;;
11777;SDS011;5946;51.770;8.548;2024-01-06T04:04:35;46.53;;;23.57;;
11777;SDS011;5946;51.770;8.548;2024-01-06T04:07:01;54.47;;;24.60;;
11777;SDS011;5946;51.770;8.548;2024-01-06T04:09:27;46.37;;;23.50;;
11777;SDS011;5946;51.770;8.548;2024-01-06T04:11:53;47.70;;;23.57;;
11777;SDS011;5946;51.770;8.548;2024-01-06T04:14:19;45.63;;;22.57;;
11777;SDS011;5946;51.770;8.548;2024-01-06T04:16:45;51.03;;;24.37;;
11777;SDS011;5946;51.770;8.548;2024-01-06T04:19:11;51.07;;;24.43;;
11777;SDS011;5946;51.770;8.548;2024-01-06T04:21:38;48.33;;;24.30;;
11777;SDS011;5946;51.770;8.548;2024-01-06T04:24:04;55.40;;;25.13;;
11777;SDS011;5946;51.770;8.548;2024-01-06T04:26:30;52.70;;;24.83;;
11777;SDS011;5946;51.770;8.548;2024-01-06T04:28:56;64.40;;;26.27;;
11777;SDS011;5946;51.770;8.548;2024-01-06T04:31:21;50.10;;;23.73;;
11777;SDS011;5946;51.770;8.548;2024-01-06T04:33:47;43.93;;;22.53;;
11777;SDS011;5946;51.770;8.548;2024-01-06T04:36:13;49.60;;;24.40;;
11777;SDS011;5946;51.770;8.548;2024-01-06T04:38:39;51.47;;;24.83;;
11777;SDS011;5946;51.770;8.548;2024-01-06T04:41:05;51.70;;;25.20;;
11777;SDS011;5946;51.770;8.548;2024-01-06T04:43:31;50.53;;;24.30;;
11777;SDS011;5946;51.770;8.548;2024-01-06T04:45:57;51.23;;;24.33;;
11777;SDS011;5946;51.770;8.548;2024-01-06T04:48:23;58.17;;;25.47;;
11777;SDS011;5946;51.770;8.548;2024-01-06T04:50:49;51.17;;;25.00;;
11777;SDS011;5946;51.770;8.548;2024-01-06T04:53:15;54.20;;;24.90;;
11777;SDS011;5946;51.770;8.548;2024-01-06T04:55:41;48.20;;;23.77;;
11777;SDS011;5946;51.770;8.548;2024-01-06T04:58:07;57.73;;;26.43;;
11777;SDS011;5946;51.770;8.548;2024-01-06T05:00:33;56.27;;;25.23;;
11777;SDS011;5946;51.770;8.548;2024-01-06T05:03:01;53.57;;;26.33;;
11777;SDS011;5946;51.770;8.548;2024-01-06T05:05:27;57.87;;;27.23;;
11777;SDS011;5946;51.770;8.548;2024-01-06T05:07:53;58.00;;;28.37;;
11777;SDS011;5946;51.770;8.548;2024-01-06T05:10:19;60.87;;;29.27;;
11777;SDS011;5946;51.770;8.548;2024-01-06T05:12:45;58.30;;;29.00;;
11777;SDS011;5946;51.770;8.548;2024-01-06T05:15:11;74.17;;;31.67;;
11777;SDS011;5946;51.770;8.548;2024-01-06T05:17:37;66.53;;;30.57;;
11777;SDS011;5946;51.770;8.548;2024-01-06T05:20:03;61.43;;;30.60;;
11777;SDS011;5946;51.770;8.548;2024-01-06T05:22:29;65.67;;;29.70;;
11777;SDS011;5946;51.770;8.548;2024-01-06T05:24:55;60.83;;;28.67;;
11777;SDS011;5946;51.770;8.548;2024-01-06T05:27:21;55.27;;;26.83;;
11777;SDS011;5946;51.770;8.548;2024-01-06T05:29:47;55.33;;;26.53;;
11777;SDS011;5946;51.770;8.548;2024-01-06T05:32:14;52.50;;;25.27;;
11777;SDS011;5946;51.770;8.548;2024-01-06T05:34:40;53.53;;;24.73;;
11777;SDS011;5946;51.770;8.548;2024-01-06T05:37:06;56.67;;;25.17;;
11777;SDS011;5946;51.770;8.548;2024-01-06T05:39:32;53.50;;;23.53;;
11777;SDS011;5946;51.770;8.548;2024-01-06T05:41:58;54.57;;;23.33;;
11777;SDS011;5946;51.770;8.548;2024-01-06T05:44:23;54.63;;;24.33;;
11777;SDS011;5946;51.770;8.548;2024-01-06T05:46:50;54.77;;;23.33;;
11777;SDS011;5946;51.770;8.548;2024-01-06T05:49:16;52.60;;;22.83;;
11777;SDS011;5946;51.770;8.548;2024-01-06T05:51:45;53.40;;;22.20;;
11777;SDS011;5946;51.770;8.548;2024-01-06T05:54:11;49.50;;;21.50;;
11777;SDS011;5946;51.770;8.548;2024-01-06T05:56:38;50.33;;;21.03;;
11777;SDS011;5946;51.770;8.548;2024-01-06T05:59:04;50.50;;;20.73;;
11777;SDS011;5946;51.770;8.548;2024-01-06T06:01:29;52.53;;;21.00;;
11777;SDS011;5946;51.770;8.548;2024-01-06T06:03:55;52.77;;;21.13;;
11777;SDS011;5946;51.770;8.548;2024-01-06T06:06:21;50.90;;;20.43;;
11777;SDS011;5946;51.770;8.548;2024-01-06T06:08:47;50.70;;;19.43;;
11777;SDS011;5946;51.770;8.548;2024-01-06T06:11:13;54.80;;;19.73;;
11777;SDS011;5946;51.770;8.548;2024-01-06T06:13:40;49.77;;;18.43;;
11777;SDS011;5946;51.770;8.548;2024-01-06T06:16:06;50.43;;;18.40;;
11777;SDS011;5946;51.770;8.548;2024-01-06T06:18:32;51.23;;;18.67;;
11777;SDS011;5946;51.770;8.548;2024-01-06T06:20:59;49.27;;;17.93;;
11777;SDS011;5946;51.770;8.548;2024-01-06T06:23:26;52.27;;;18.77;;
11777;SDS011;5946;51.770;8.548;2024-01-06T06:25:53;55.60;;;18.77;;
11777;SDS011;5946;51.770;8.548;2024-01-06T06:28:19;53.53;;;19.20;;
11777;SDS011;5946;51.770;8.548;2024-01-06T06:30:45;53.93;;;19.30;;
11777;SDS011;5946;51.770;8.548;2024-01-06T06:33:11;51.77;;;19.17;;
11777;SDS011;5946;51.770;8.548;2024-01-06T06:35:37;49.87;;;18.43;;
11777;SDS011;5946;51.770;8.548;2024-01-06T06:38:03;55.53;;;19.53;;
11777;SDS011;5946;51.770;8.548;2024-01-06T06:40:29;51.87;;;18.90;;
11777;SDS011;5946;51.770;8.548;2024-01-06T06:42:55;52.23;;;18.73;;
11777;SDS011;5946;51.770;8.548;2024-01-06T06:45:21;53.67;;;19.07;;
11777;SDS011;5946;51.770;8.548;2024-01-06T06:47:48;53.37;;;18.83;;
11777;SDS011;5946;51.770;8.548;2024-01-06T06:50:17;51.43;;;19.40;;
11777;SDS011;5946;51.770;8.548;2024-01-06T06:52:43;52.93;;;18.73;;
11777;SDS011;5946;51.770;8.548;2024-01-06T06:55:09;54.77;;;19.30;;
11777;SDS011;5946;51.770;8.548;2024-01-06T06:57:36;56.47;;;19.27;;
11777;SDS011;5946;51.770;8.548;2024-01-06T07:00:02;54.83;;;18.97;;
11777;SDS011;5946;51.770;8.548;2024-01-06T07:02:28;61.07;;;19.17;;
11777;SDS011;5946;51.770;8.548;2024-01-06T07:04:54;52.63;;;20.13;;
11777;SDS011;5946;51.770;8.548;2024-01-06T07:07:20;54.20;;;19.53;;
11777;SDS011;5946;51.770;8.548;2024-01-06T07:09:45;57.53;;;19.67;;
11777;SDS011;5946;51.770;8.548;2024-01-06T07:12:11;54.27;;;20.73;;
11777;SDS011;5946;51.770;8.548;2024-01-06T07:14:37;52.47;;;19.93;;
11777;SDS011;5946;51.770;8.548;2024-01-06T07:17:03;54.73;;;20.53;;
11777;SDS011;5946;51.770;8.548;2024-01-06T07:19:31;57.27;;;21.37;;
11777;SDS011;5946;51.770;8.548;2024-01-06T07:21:57;58.17;;;19.87;;
11777;SDS011;5946;51.770;8.548;2024-01-06T07:24:23;59.47;;;20.60;;
11777;SDS011;5946;51.770;8.548;2024-01-06T07:26:49;60.73;;;20.90;;
11777;SDS011;5946;51.770;8.548;2024-01-06T07:29:15;48.00;;;18.40;;
11777;SDS011;5946;51.770;8.548;2024-01-06T07:31:41;50.13;;;19.70;;
11777;SDS011;5946;51.770;8.548;2024-01-06T07:34:07;52.73;;;19.13;;
11777;SDS011;5946;51.770;8.548;2024-01-06T07:36:33;50.73;;;19.33;;
11777;SDS011;5946;51.770;8.548;2024-01-06T07:38:59;52.23;;;20.20;;
11777;SDS011;5946;51.770;8.548;2024-01-06T07:41:25;55.30;;;20.30;;
11777;SDS011;5946;51.770;8.548;2024-01-06T07:43:51;56.70;;;20.40;;
11777;SDS011;5946;51.770;8.548;2024-01-06T07:46:17;47.67;;;18.73;;
11777;SDS011;5946;51.770;8.548;2024-01-06T07:48:43;57.70;;;20.27;;
11777;SDS011;5946;51.770;8.548;2024-01-06T07:51:09;54.73;;;19.77;;
11777;SDS011;5946;51.770;8.548;2024-01-06T07:53:34;48.27;;;19.60;;
11777;SDS011;5946;51.770;8.548;2024-01-06T07:56:00;42.73;;;17.53;;
11777;SDS011;5946;51.770;8.548;2024-01-06T07:58:26;38.20;;;16.97;;
11777;SDS011;5946;51.770;8.548;2024-01-06T08:00:53;41.50;;;16.57;;
11777;SDS011;5946;51.770;8.548;2024-01-06T08:03:19;36.47;;;15.70;;
11777;SDS011;5946;51.770;8.548;2024-01-06T08:05:45;40.37;;;16.77;;
11777;SDS011;5946;51.770;8.548;2024-01-06T08:08:11;41.60;;;16.30;;
11777;SDS011;5946;51.770;8.548;2024-01-06T08:10:39;38.83;;;17.07;;
11777;SDS011;5946;51.770;8.548;2024-01-06T08:13:05;45.10;;;17.87;;
11777;SDS011;5946;51.770;8.548;2024-01-06T08:15:31;37.17;;;15.90;;
11777;SDS011;5946;51.770;8.548;2024-01-06T08:17:58;41.30;;;17.40;;
11777;SDS011;5946;51.770;8.548;2024-01-06T08:20:24;37.50;;;15.63;;
11777;SDS011;5946;51.770;8.548;2024-01-06T08:22:50;39.60;;;17.37;;
11777;SDS011;5946;51.770;8.548;2024-01-06T08:25:16;39.77;;;16.30;;
11777;SDS011;5946;51.770;8.548;2024-01-06T08:27:44;39.93;;;16.93;;
11777;SDS011;5946;51.770;8.548;2024-01-06T08:30:10;45.00;;;15.53;;
11777;SDS011;5946;51.770;8.548;2024-01-06T08:32:37;34.83;;;15.43;;
11777;SDS011;5946;51.770;8.548;2024-01-06T08:35:03;37.37;;;15.27;;
11777;SDS011;5946;51.770;8.548;2024-01-06T08:37:29;42.10;;;16.73;;
11777;SDS011;5946;51.770;8.548;2024-01-06T08:39:55;37.27;;;16.47;;
11777;SDS011;5946;51.770;8.548;2024-01-06T08:42:21;34.67;;;15.90;;
11777;SDS011;5946;51.770;8.548;2024-01-06T08:44:49;37.77;;;15.30;;
11777;SDS011;5946;51.770;8.548;2024-01-06T08:47:15;29.13;;;14.17;;
11777;SDS011;5946;51.770;8.548;2024-01-06T08:49:41;32.53;;;14.13;;
11777;SDS011;5946;51.770;8.548;2024-01-06T08:52:07;27.97;;;13.10;;
11777;SDS011;5946;51.770;8.548;2024-01-06T08:54:33;28.13;;;13.00;;
11777;SDS011;5946;51.770;8.548;2024-01-06T08:56:59;31.97;;;13.33;;
11777;SDS011;5946;51.770;8.548;2024-01-06T08:59:25;30.20;;;13.10;;
11777;SDS011;5946;51.770;8.548;2024-01-06T09:01:51;32.20;;;13.40;;
11777;SDS011;5946;51.770;8.548;2024-01-06T09:04:17;32.17;;;13.33;;
11777;SDS011;5946;51.770;8.548;2024-01-06T09:06:43;31.37;;;13.37;;
11777;SDS011;5946;51.770;8.548;2024-01-06T09:09:11;28.33;;;13.03;;
11777;SDS011;5946;51.770;8.548;2024-01-06T09:11:38;33.33;;;14.10;;
11777;SDS011;5946;51.770;8.548;2024-01-06T09:14:04;29.67;;;13.90;;
11777;SDS011;5946;51.770;8.548;2024-01-06T09:16:30;28.53;;;13.50;;
11777;SDS011;5946;51.770;8.548;2024-01-06T09:18:56;32.90;;;12.97;;
11777;SDS011;5946;51.770;8.548;2024-01-06T09:21:22;28.40;;;12.90;;
11777;SDS011;5946;51.770;8.548;2024-01-06T09:23:48;27.70;;;13.17;;
11777;SDS011;5946;51.770;8.548;2024-01-06T09:26:14;32.57;;;13.30;;
11777;SDS011;5946;51.770;8.548;2024-01-06T09:28:41;24.50;;;12.07;;
11777;SDS011;5946;51.770;8.548;2024-01-06T09:31:07;20.37;;;10.80;;
11777;SDS011;5946;51.770;8.548;2024-01-06T09:33:33;23.37;;;11.73;;
11777;SDS011;5946;51.770;8.548;2024-01-06T09:35:59;22.83;;;10.90;;
11777;SDS011;5946;51.770;8.548;2024-01-06T09:38:25;21.30;;;10.10;;
11777;SDS011;5946;51.770;8.548;2024-01-06T09:40:51;22.17;;;10.63;;
11777;SDS011;5946;51.770;8.548;2024-01-06T09:43:18;20.00;;;10.90;;
11777;SDS011;5946;51.770;8.548;2024-01-06T09:45:45;19.23;;;10.07;;
11777;SDS011;5946;51.770;8.548;2024-01-06T09:48:14;19.90;;;9.63;;
11777;SDS011;5946;51.770;8.548;2024-01-06T09:50:40;18.83;;;9.53;;
11777;SDS011;5946;51.770;8.548;2024-01-06T09:53:08;18.70;;;9.27;;
11777;SDS011;5946;51.770;8.548;2024-01-06T09:55:36;18.10;;;9.50;;
11777;SDS011;5946;51.770;8.548;2024-01-06T09:58:02;20.33;;;9.40;;
11777;SDS011;5946;51.770;8.548;2024-01-06T10:00:28;15.50;;;8.97;;
11777;SDS011;5946;51.770;8.548;2024-01-06T10:02:54;20.27;;;10.23;;
11777;SDS011;5946;51.770;8.548;2024-01-06T10:05:20;19.47;;;10.43;;
11777;SDS011;5946;51.770;8.548;2024-01-06T10:07:46;17.83;;;10.03;;
11777;SDS011;5946;51.770;8.548;2024-01-06T10:10:13;18.20;;;9.67;;
11777;SDS011;5946;51.770;8.548;2024-01-06T10:12:39;15.47;;;9.80;;
11777;SDS011;5946;51.770;8.548;2024-01-06T10:15:09;19.00;;;10.20;;
11777;SDS011;5946;51.770;8.548;2024-01-06T10:17:38;19.83;;;9.63;;
11777;SDS011;5946;51.770;8.548;2024-01-06T10:20:08;17.23;;;9.53;;
11777;SDS011;5946;51.770;8.548;2024-01-06T10:22:36;19.43;;;10.63;;
11777;SDS011;5946;51.770;8.548;2024-01-06T10:25:02;18.13;;;9.77;;
11777;SDS011;5946;51.770;8.548;2024-01-06T10:27:28;25.57;;;12.00;;
11777;SDS011;5946;51.770;8.548;2024-01-06T10:29:54;26.17;;;13.60;;
11777;SDS011;5946;51.770;8.548;2024-01-06T10:32:20;23.87;;;13.90;;
11777;SDS011;5946;51.770;8.548;2024-01-06T10:34:46;25.97;;;14.00;;
11777;SDS011;5946;51.770;8.548;2024-01-06T10:37:12;25.13;;;13.60;;
11777;SDS011;5946;51.770;8.548;2024-01-06T10:39:38;25.10;;;13.53;;
11777;SDS011;5946;51.770;8.548;2024-01-06T10:42:04;22.20;;;12.73;;
11777;SDS011;5946;51.770;8.548;2024-01-06T10:44:32;23.97;;;11.93;;
11777;SDS011;5946;51.770;8.548;2024-01-06T10:46:59;23.87;;;12.30;;
11777;SDS011;5946;51.770;8.548;2024-01-06T10:49:25;24.80;;;12.17;;
11777;SDS011;5946;51.770;8.548;2024-01-06T10:51:52;21.90;;;11.90;;
11777;SDS011;5946;51.770;8.548;2024-01-06T10:54:18;24.67;;;11.30;;
11777;SDS011;5946;51.770;8.548;2024-01-06T10:56:45;22.97;;;11.23;;
11777;SDS011;5946;51.770;8.548;2024-01-06T10:59:11;21.67;;;11.17;;
11777;SDS011;5946;51.770;8.548;2024-01-06T11:01:37;24.80;;;11.03;;
11777;SDS011;5946;51.770;8.548;2024-01-06T11:04:04;22.93;;;10.77;;
11777;SDS011;5946;51.770;8.548;2024-01-06T11:06:31;21.00;;;10.33;;
11777;SDS011;5946;51.770;8.548;2024-01-06T11:09:02;22.30;;;9.80;;
11777;SDS011;5946;51.770;8.548;2024-01-06T11:11:30;17.20;;;9.07;;
11777;SDS011;5946;51.770;8.548;2024-01-06T11:16:41;21.53;;;10.23;;
11777;SDS011;5946;51.770;8.548;2024-01-06T11:21:53;20.67;;;10.97;;
11777;SDS011;5946;51.770;8.548;2024-01-06T11:24:19;19.50;;;10.40;;
11777;SDS011;5946;51.770;8.548;2024-01-06T11:26:49;20.60;;;10.47;;
11777;SDS011;5946;51.770;8.548;2024-01-06T11:29:15;17.23;;;9.67;;
11777;SDS011;5946;51.770;8.548;2024-01-06T11:31:41;19.80;;;10.50;;
11777;SDS011;5946;51.770;8.548;2024-01-06T11:34:12;16.77;;;9.53;;
11777;SDS011;5946;51.770;8.548;2024-01-06T11:36:38;17.63;;;9.80;;
11777;SDS011;5946;51.770;8.548;2024-01-06T11:39:05;18.20;;;10.00;;
11777;SDS011;5946;51.770;8.548;2024-01-06T11:44:22;23.07;;;10.50;;
11777;SDS011;5946;51.770;8.548;2024-01-06T11:46:48;17.50;;;9.33;;
11777;SDS011;5946;51.770;8.548;2024-01-06T11:49:16;14.97;;;8.80;;
11777;SDS011;5946;51.770;8.548;2024-01-06T11:51:45;14.67;;;8.53;;
11777;SDS011;5946;51.770;8.548;2024-01-06T11:54:10;17.40;;;9.20;;
11777;SDS011;5946;51.770;8.548;2024-01-06T11:56:37;19.50;;;9.20;;
11777;SDS011;5946;51.770;8.548;2024-01-06T11:59:03;27.27;;;10.60;;
11777;SDS011;5946;51.770;8.548;2024-01-06T12:01:36;17.57;;;8.80;;
11777;SDS011;5946;51.770;8.548;2024-01-06T12:04:02;19.43;;;9.10;;
11777;SDS011;5946;51.770;8.548;2024-01-06T12:06:30;17.47;;;9.57;;
11777;SDS011;5946;51.770;8.548;2024-01-06T12:09:05;15.97;;;8.60;;
11777;SDS011;5946;51.770;8.548;2024-01-06T12:11:31;18.37;;;9.83;;
11777;SDS011;5946;51.770;8.548;2024-01-06T12:13:57;16.67;;;8.87;;
11777;SDS011;5946;51.770;8.548;2024-01-06T12:16:23;17.77;;;8.90;;
11777;SDS011;5946;51.770;8.548;2024-01-06T12:18:55;15.93;;;8.50;;
11777;SDS011;5946;51.770;8.548;2024-01-06T12:21:25;17.27;;;9.20;;
11777;SDS011;5946;51.770;8.548;2024-01-06T12:23:51;14.67;;;8.17;;
11777;SDS011;5946;51.770;8.548;2024-01-06T12:26:17;15.47;;;8.50;;
11777;SDS011;5946;51.770;8.548;2024-01-06T12:28:47;15.43;;;8.67;;
11777;SDS011;5946;51.770;8.548;2024-01-06T12:31:15;16.37;;;9.13;;
11777;SDS011;5946;51.770;8.548;2024-01-06T12:33:41;14.90;;;8.57;;
11777;SDS011;5946;51.770;8.548;2024-01-06T12:36:07;17.33;;;9.13;;
11777;SDS011;5946;51.770;8.548;2024-01-06T12:38:34;15.57;;;8.87;;
11777;SDS011;5946;51.770;8.548;2024-01-06T12:41:00;17.13;;;10.27;;
11777;SDS011;5946;51.770;8.548;2024-01-06T12:43:27;16.80;;;10.03;;
11777;SDS011;5946;51.770;8.548;2024-01-06T12:45:53;17.40;;;10.20;;
11777;SDS011;5946;51.770;8.548;2024-01-06T12:48:19;16.93;;;11.27;;
11777;SDS011;5946;51.770;8.548;2024-01-06T12:50:45;24.23;;;11.03;;
11777;SDS011;5946;51.770;8.548;2024-01-06T12:53:11;18.47;;;12.60;;
11777;SDS011;5946;51.770;8.548;2024-01-06T12:55:37;19.37;;;10.67;;
11777;SDS011;5946;51.770;8.548;2024-01-06T12:58:04;16.77;;;11.13;;
11777;SDS011;5946;51.770;8.548;2024-01-06T13:00:30;19.23;;;10.63;;
11777;SDS011;5946;51.770;8.548;2024-01-06T13:02:56;16.97;;;9.77;;
11777;SDS011;5946;51.770;8.548;2024-01-06T13:05:22;18.43;;;11.57;;
11777;SDS011;5946;51.770;8.548;2024-01-06T13:07:48;17.13;;;9.60;;
11777;SDS011;5946;51.770;8.548;2024-01-06T13:10:15;14.50;;;8.87;;
11777;SDS011;5946;51.770;8.548;2024-01-06T13:12:41;14.10;;;8.43;;
11777;SDS011;5946;51.770;8.548;2024-01-06T13:15:07;13.20;;;8.33;;
11777;SDS011;5946;51.770;8.548;2024-01-06T13:17:36;14.73;;;8.60;;
11777;SDS011;5946;51.770;8.548;2024-01-06T13:20:03;14.03;;;8.77;;
11777;SDS011;5946;51.770;8.548;2024-01-06T13:22:29;13.13;;;8.53;;
11777;SDS011;5946;51.770;8.548;2024-01-06T13:24:55;12.90;;;8.40;;
11777;SDS011;5946;51.770;8.548;2024-01-06T13:27:21;16.63;;;9.80;;
11777;SDS011;5946;51.770;8.548;2024-01-06T13:29:47;16.40;;;11.30;;
11777;SDS011;5946;51.770;8.548;2024-01-06T13:32:13;16.70;;;11.87;;
11777;SDS011;5946;51.770;8.548;2024-01-06T13:34:40;14.40;;;8.50;;
11777;SDS011;5946;51.770;8.548;2024-01-06T13:37:07;15.97;;;11.07;;
11777;SDS011;5946;51.770;8.548;2024-01-06T13:39:33;16.13;;;9.73;;
11777;SDS011;5946;51.770;8.548;2024-01-06T13:41:59;15.97;;;10.93;;
11777;SDS011;5946;51.770;8.548;2024-01-06T13:44:25;19.77;;;10.50;;
11777;SDS011;5946;51.770;8.548;2024-01-06T13:46:51;13.50;;;9.27;;
11777;SDS011;5946;51.770;8.548;2024-01-06T13:49:19;14.10;;;9.37;;
11777;SDS011;5946;51.770;8.548;2024-01-06T13:51:45;13.77;;;8.90;;
11777;SDS011;5946;51.770;8.548;2024-01-06T13:54:11;26.23;;;19.40;;
11777;SDS011;5946;51.770;8.548;2024-01-06T13:56:37;10.53;;;7.57;;
11777;SDS011;5946;51.770;8.548;2024-01-06T13:59:03;15.37;;;10.63;;
11777;SDS011;5946;51.770;8.548;2024-01-06T14:01:29;31.73;;;19.97;;
11777;SDS011;5946;51.770;8.548;2024-01-06T14:03:56;21.63;;;14.07;;
11777;SDS011;5946;51.770;8.548;2024-01-06T14:06:25;49.17;;;30.67;;
11777;SDS011;5946;51.770;8.548;2024-01-06T14:08:54;26.37;;;15.90;;
11777;SDS011;5946;51.770;8.548;2024-01-06T14:11:20;12.73;;;9.20;;
11777;SDS011;5946;51.770;8.548;2024-01-06T14:13:46;8.83;;;5.93;;
11777;SDS011;5946;51.770;8.548;2024-01-06T14:16:14;12.83;;;6.73;;
11777;SDS011;5946;51.770;8.548;2024-01-06T14:18:41;8.13;;;5.73;;
11777;SDS011;5946;51.770;8.548;2024-01-06T14:21:10;8.27;;;6.10;;
11777;SDS011;5946;51.770;8.548;2024-01-06T14:23:39;12.97;;;7.67;;
11777;SDS011;5946;51.770;8.548;2024-01-06T14:26:05;14.67;;;9.33;;
11777;SDS011;5946;51.770;8.548;2024-01-06T14:28:31;8.60;;;6.60;;
11777;SDS011;5946;51.770;8.548;2024-01-06T14:30:57;12.63;;;8.17;;
11777;SDS011;5946;51.770;8.548;2024-01-06T14:33:23;8.40;;;6.80;;
11777;SDS011;5946;51.770;8.548;2024-01-06T14:35:49;10.47;;;7.77;;
11777;SDS011;5946;51.770;8.548;2024-01-06T14:38:15;9.77;;;6.23;;
11777;SDS011;5946;51.770;8.548;2024-01-06T14:40:41;10.10;;;5.37;;